Hauptseite
METAR-TAF:

METAR-TAF

Flughäfen :

Flughafen Caracas

Caracas, Venezuela

Breite: 10-36N, Länge: 066-59W, Höhe: 43 m

Beobachtung

Neuester Wetterbericht von vor 44 Minuten, um 02:00 UTC
Wind 4 kt aus Ost/Südost
Temperatur 26°C
Luftfeuchtigkeit 79%
Luftdruck 1011 hPa
Sichtweite 10 km oder mehr
Durchbrochene Bewölkung in der Höhe von 1600 ft

METAR: SVMI 230200Z 11004KT 9999 BKN016 26/22 Q1011

Zeit: 22:44 (02:44 UTC)

Prognose

Neuester Wetterbericht von vor 4 Stunden und 44 Minuten, um 22:00 UTC
Gültige Prognose vom 23 um 00 UTC bis 24 um 00 UTC
Wind 3 kt aus Ost/Südost
Sichtweite 10 km oder mehr
Durchbrochene Bewölkung in der Höhe von 1600 ft
Übergehend zu
vom 23 um 00 UTC bis 23 um 04 UTC
Wind 5 kt aus Ost
Sichtweite: 9000 m
Durchbrochene Bewölkung in der Höhe von 1600 ft
Sprühregen leicht

TAF: SVMI 222200Z 2300/2400 11003KT 9999 BKN016 TX33/19 TN24/09 BECMG 2300/2304 09005KT 9000 -DZ BKN016

Wetterbeobachtungen und Prognosen von mehr als 4000 Flughäfen (METAR und TAF Bericht).

Die verfügbaren Stationen werden durch gelbe und rote Markierungen auf der Karte dargestellt.

Führen Sie die Maus auf sie, um den Namen der Station zu sehen.

Darauf klicken, um die Beobachtung von Wetterbeobachtungen und Prognosen zu sehen.

Um die Karte zu ändern : klicken Sie auf den grünen Tasten mit einem schwarzen Kreuz Zum Vergrößern, auf den grünen Button mit einem Gedankenstrich zu verkleinern, oder auf die grünen Pfeile für benachbarte Karten.


METAR-TAF: